Sunday, May 29, 2016, 3:32 AM EDT
Back to Local

KCXY, Harrisburg Capital City

Location: New Cumberland, PA, United States Lat: 40.217
Local Time: 3:32 AM EDT ( 7:32 GMT) Lon: -76.85
Time Zone: US/Eastern Elev: 347 ft

Show me the last for .
Show Decoded

2016-05-29 02:56 METAR KCXY 290656Z AUTO 00000KT 10SM CLR 22/18 A3012 RMK AO2 SLP196 T02220178 =
2016-05-29 01:56 METAR KCXY 290556Z AUTO 20003KT 10SM CLR 23/18 A3013 RMK AO2 SLP200 T02280178
                 10300 20222 50002 =
2016-05-29 00:56 METAR KCXY 290456Z AUTO 12006KT 10SM CLR 24/17 A3013 RMK AO2 SLP201 T02390172
                 403280189 =
2016-05-28 23:56 METAR KCXY 290356Z AUTO VRB03KT 10SM CLR 25/17 A3013 RMK AO2 SLP200 T02500172 =
2016-05-28 22:56 METAR KCXY 290256Z AUTO 18006KT 10SM CLR 26/18 A3012 RMK AO2 SLP198 T02610178
                 51011 =
2016-05-28 21:56 METAR KCXY 290156Z AUTO 16008KT 10SM CLR 27/18 A3011 RMK AO2 SLP195 T02720183 =
2016-05-28 20:56 METAR KCXY 290056Z AUTO 17008KT 10SM CLR 28/19 A3010 RMK AO2 SLP191 T02830194 =
2016-05-28 19:56 METAR KCXY 282356Z 18007KT 10SM CLR 30/18 A3009 RMK AO2 SLP187 T03000183 10328
                 20300 53006 =
2016-05-28 18:56 METAR KCXY 282256Z 21008KT 10SM FEW055 31/18 A3007 RMK AO2 SLP180 T03110183 =
2016-05-28 17:56 METAR KCXY 282156Z 20008KT 170V240 10SM FEW055 32/18 A3006 RMK AO2 SLP178
                 T03220183 =
2016-05-28 16:56 METAR KCXY 282056Z 17010KT 10SM FEW055 32/19 A3007 RMK AO2 SLP180 T03220194
                 57015 =
2016-05-28 15:56 METAR KCXY 281956Z 25009KT 10SM FEW055 33/19 A3008 RMK AO2 SLP185 T03280194 =
2016-05-28 14:56 METAR KCXY 281856Z 19007KT 10SM CLR 32/19 A3010 RMK AO2 SLP191 T03220189 =
2016-05-28 13:56 METAR KCXY 281756Z 14006KT 10SM FEW044 31/19 A3011 RMK AO2 SLP196 T03110194
                 10317 20222 58010 =
2016-05-28 12:56 METAR KCXY 281656Z VRB04KT 10SM CLR 31/20 A3013 RMK AO2 SLP200 T03110200 =
2016-05-28 11:56 METAR KCXY 281556Z 08006KT 10SM CLR 29/21 A3014 RMK AO2 SLP203 T02940211 =
2016-05-28 10:56 METAR KCXY 281456Z 07003KT 10SM CLR 28/21 A3014 RMK AO2 SLP206 T02780206 50003 =
2016-05-28 09:56 METAR KCXY 281356Z 00000KT 9SM CLR 27/21 A3015 RMK AO2 SLP208 T02670206 =
2016-05-28 08:56 METAR KCXY 281256Z 00000KT 8SM FEW120 24/19 A3014 RMK AO2 SLP206 T02390194 =
2016-05-28 07:56 METAR KCXY 281156Z 00000KT 8SM CLR 22/19 A3014 RMK AO2 SLP204 70004 T02220194
                 10222 20189 51013 =
2016-05-28 06:56 METAR KCXY 281056Z 00000KT 5SM BR CLR 21/19 A3012 RMK AO2 SLP199 T02110189 =
2016-05-28 05:56 METAR KCXY 280956Z AUTO 23003KT 7SM CLR 19/17 A3012 RMK AO2 SLP196 T01890172 =
2016-05-28 04:56 METAR KCXY 280856Z AUTO 00000KT 8SM CLR 19/18 A3010 RMK AO2 SLP190 T01940178
                 53006 =
2016-05-28 03:56 METAR KCXY 280756Z AUTO 00000KT 9SM CLR 20/18 A3008 RMK AO2 SLP185 T02000183 =

Support USWX by starting your Amazon purchase here.